sensor_id;sensor_type;location;lat;lon;timestamp;pressure;altitude;pressure_sealevel;temperature;humidity
61119;BME280;51448;51.660;5.824;2023-04-28T00:00:36;101267.72;;;9.29;67.28
61119;BME280;51448;51.660;5.824;2023-04-28T00:03:04;101266.03;;;9.24;67.77
61119;BME280;51448;51.660;5.824;2023-04-28T00:05:32;101258.25;;;9.20;68.03
61119;BME280;51448;51.660;5.824;2023-04-28T00:07:59;101256.56;;;9.14;67.48
61119;BME280;51448;51.660;5.824;2023-04-28T00:10:27;101255.72;;;9.12;67.80
61119;BME280;51448;51.660;5.824;2023-04-28T00:12:55;101247.00;;;9.10;67.81
61119;BME280;51448;51.660;5.824;2023-04-28T00:15:23;101247.00;;;9.12;68.19
61119;BME280;51448;51.660;5.824;2023-04-28T00:17:50;101242.59;;;9.12;68.26
61119;BME280;51448;51.660;5.824;2023-04-28T00:20:18;101248.75;;;9.13;68.78
61119;BME280;51448;51.660;5.824;2023-04-28T00:22:46;101253.09;;;9.12;68.95
61119;BME280;51448;51.660;5.824;2023-04-28T00:25:15;101243.50;;;9.11;68.93
61119;BME280;51448;51.660;5.824;2023-04-28T00:27:43;101237.44;;;9.07;68.98
61119;BME280;51448;51.660;5.824;2023-04-28T00:30:11;101239.22;;;9.04;68.97
61119;BME280;51448;51.660;5.824;2023-04-28T00:32:38;101235.81;;;9.00;69.32
61119;BME280;51448;51.660;5.824;2023-04-28T00:35:07;101241.06;;;9.00;69.53
61119;BME280;51448;51.660;5.824;2023-04-28T00:37:36;101235.81;;;9.00;69.74
61119;BME280;51448;51.660;5.824;2023-04-28T00:40:04;101230.56;;;9.00;70.43
61119;BME280;51448;51.660;5.824;2023-04-28T00:42:32;101231.41;;;9.01;70.02
61119;BME280;51448;51.660;5.824;2023-04-28T00:45:00;101226.16;;;9.01;70.24
61119;BME280;51448;51.660;5.824;2023-04-28T00:47:33;101221.78;;;9.01;70.95
61119;BME280;51448;51.660;5.824;2023-04-28T00:50:02;101212.22;;;8.99;71.39
61119;BME280;51448;51.660;5.824;2023-04-28T00:52:35;101211.34;;;8.98;71.53
61119;BME280;51448;51.660;5.824;2023-04-28T00:55:03;101210.47;;;8.98;70.79
61119;BME280;51448;51.660;5.824;2023-04-28T00:57:32;101210.47;;;8.98;71.88
61119;BME280;51448;51.660;5.824;2023-04-28T01:00:01;101205.22;;;8.98;71.04
61119;BME280;51448;51.660;5.824;2023-04-28T01:02:29;101199.09;;;8.97;71.84
61119;BME280;51448;51.660;5.824;2023-04-28T01:04:59;101197.34;;;8.98;71.43
61119;BME280;51448;51.660;5.824;2023-04-28T01:07:28;101189.47;;;8.98;72.21
61119;BME280;51448;51.660;5.824;2023-04-28T01:09:55;101188.63;;;8.97;72.17
61119;BME280;51448;51.660;5.824;2023-04-28T01:12:29;101179.88;;;8.97;72.25
61119;BME280;51448;51.660;5.824;2023-04-28T01:14:57;101186.91;;;8.95;73.10
61119;BME280;51448;51.660;5.824;2023-04-28T01:17:27;101186.06;;;8.93;72.93
61119;BME280;51448;51.660;5.824;2023-04-28T01:19:55;101180.84;;;8.91;73.23
61119;BME280;51448;51.660;5.824;2023-04-28T01:22:23;101183.47;;;8.91;73.27
61119;BME280;51448;51.660;5.824;2023-04-28T01:24:50;101185.22;;;8.91;73.19
61119;BME280;51448;51.660;5.824;2023-04-28T01:27:18;101182.63;;;8.89;73.70
61119;BME280;51448;51.660;5.824;2023-04-28T01:29:45;101192.28;;;8.85;74.21
61119;BME280;51448;51.660;5.824;2023-04-28T01:32:13;101180.94;;;8.83;74.67
61119;BME280;51448;51.660;5.824;2023-04-28T01:34:41;101167.91;;;8.80;75.03
61119;BME280;51448;51.660;5.824;2023-04-28T01:37:09;101153.94;;;8.80;74.62
61119;BME280;51448;51.660;5.824;2023-04-28T01:39:36;101147.78;;;8.79;75.02
61119;BME280;51448;51.660;5.824;2023-04-28T01:42:04;101143.44;;;8.78;75.01
61119;BME280;51448;51.660;5.824;2023-04-28T01:44:33;101155.72;;;8.78;75.38
61119;BME280;51448;51.660;5.824;2023-04-28T01:47:01;101154.81;;;8.79;75.58
61119;BME280;51448;51.660;5.824;2023-04-28T01:49:28;101147.00;;;8.76;75.45
61119;BME280;51448;51.660;5.824;2023-04-28T01:51:56;101147.84;;;8.76;75.60
61119;BME280;51448;51.660;5.824;2023-04-28T01:54:24;101149.63;;;8.74;76.37
61119;BME280;51448;51.660;5.824;2023-04-28T01:56:52;101149.63;;;8.76;75.90
61119;BME280;51448;51.660;5.824;2023-04-28T01:59:21;101140.88;;;8.75;75.93
61119;BME280;51448;51.660;5.824;2023-04-28T02:01:48;101137.38;;;8.76;76.30
61119;BME280;51448;51.660;5.824;2023-04-28T02:04:16;101140.00;;;8.76;76.12
61119;BME280;51448;51.660;5.824;2023-04-28T02:06:44;101138.22;;;8.77;76.49
61119;BME280;51448;51.660;5.824;2023-04-28T02:09:12;101128.63;;;8.76;76.17
61119;BME280;51448;51.660;5.824;2023-04-28T02:11:40;101128.63;;;8.76;76.51
61119;BME280;51448;51.660;5.824;2023-04-28T02:14:07;101119.88;;;8.75;76.56
61119;BME280;51448;51.660;5.824;2023-04-28T02:16:35;101113.78;;;8.75;76.29
61119;BME280;51448;51.660;5.824;2023-04-28T02:19:02;101108.53;;;8.75;76.57
61119;BME280;51448;51.660;5.824;2023-04-28T02:21:30;101112.94;;;8.73;77.24
61119;BME280;51448;51.660;5.824;2023-04-28T02:23:58;101122.59;;;8.71;77.21
61119;BME280;51448;51.660;5.824;2023-04-28T02:26:25;101124.34;;;8.70;77.48
61119;BME280;51448;51.660;5.824;2023-04-28T02:28:53;101122.59;;;8.71;77.35
61119;BME280;51448;51.660;5.824;2023-04-28T02:31:21;101113.00;;;8.70;77.46
61119;BME280;51448;51.660;5.824;2023-04-28T02:33:49;101112.09;;;8.71;77.68
61119;BME280;51448;51.660;5.824;2023-04-28T02:36:16;101116.47;;;8.70;78.26
61119;BME280;51448;51.660;5.824;2023-04-28T02:38:44;101117.34;;;8.71;78.52
61119;BME280;51448;51.660;5.824;2023-04-28T02:41:12;101119.09;;;8.72;78.52
61119;BME280;51448;51.660;5.824;2023-04-28T02:43:41;101112.06;;;8.74;78.31
61119;BME280;51448;51.660;5.824;2023-04-28T02:46:09;101104.16;;;8.75;78.68
61119;BME280;51448;51.660;5.824;2023-04-28T02:48:37;101094.53;;;8.76;78.72
61119;BME280;51448;51.660;5.824;2023-04-28T02:51:06;101079.66;;;8.76;79.35
61119;BME280;51448;51.660;5.824;2023-04-28T02:53:34;101063.94;;;8.76;79.46
61119;BME280;51448;51.660;5.824;2023-04-28T02:56:02;101061.31;;;8.75;79.12
61119;BME280;51448;51.660;5.824;2023-04-28T02:58:32;101057.84;;;8.74;79.97
61119;BME280;51448;51.660;5.824;2023-04-28T03:01:01;101060.50;;;8.71;80.01
61119;BME280;51448;51.660;5.824;2023-04-28T03:03:29;101049.19;;;8.69;80.45
61119;BME280;51448;51.660;5.824;2023-04-28T03:05:57;101043.09;;;8.67;80.68
61119;BME280;51448;51.660;5.824;2023-04-28T03:08:24;101030.03;;;8.65;80.80
61119;BME280;51448;51.660;5.824;2023-04-28T03:10:53;101020.41;;;8.66;80.98
61119;BME280;51448;51.660;5.824;2023-04-28T03:13:21;101013.41;;;8.65;81.58
61119;BME280;51448;51.660;5.824;2023-04-28T03:15:49;101019.53;;;8.65;81.62
61119;BME280;51448;51.660;5.824;2023-04-28T03:18:17;101037.00;;;8.65;81.46
61119;BME280;51448;51.660;5.824;2023-04-28T03:20:45;101030.03;;;8.65;81.70
61119;BME280;51448;51.660;5.824;2023-04-28T03:23:14;101038.75;;;8.68;82.72
61119;BME280;51448;51.660;5.824;2023-04-28T03:25:41;101033.50;;;8.68;82.89
61119;BME280;51448;51.660;5.824;2023-04-28T03:28:09;101037.81;;;8.70;83.34
61119;BME280;51448;51.660;5.824;2023-04-28T03:30:37;101034.28;;;8.71;83.25
61119;BME280;51448;51.660;5.824;2023-04-28T03:33:04;101041.25;;;8.74;83.51
61119;BME280;51448;51.660;5.824;2023-04-28T03:35:32;101027.22;;;8.76;84.00
61119;BME280;51448;51.660;5.824;2023-04-28T03:38:00;101013.19;;;8.77;84.04
61119;BME280;51448;51.660;5.824;2023-04-28T03:40:28;101018.41;;;8.80;83.85
61119;BME280;51448;51.660;5.824;2023-04-28T03:43:22;101017.50;;;8.81;83.89
61119;BME280;51448;51.660;5.824;2023-04-28T03:46:08;101018.34;;;8.83;84.71
61119;BME280;51448;51.660;5.824;2023-04-28T03:48:36;101022.69;;;8.86;85.47
61119;BME280;51448;51.660;5.824;2023-04-28T03:51:03;101015.69;;;8.85;84.97
61119;BME280;51448;51.660;5.824;2023-04-28T03:53:31;101020.06;;;8.84;85.38
61119;BME280;51448;51.660;5.824;2023-04-28T03:55:59;101017.44;;;8.86;85.98
61119;BME280;51448;51.660;5.824;2023-04-28T03:58:26;101019.16;;;8.85;87.06
61119;BME280;51448;51.660;5.824;2023-04-28T04:00:54;101010.44;;;8.85;86.67
61119;BME280;51448;51.660;5.824;2023-04-28T04:03:22;101005.19;;;8.86;86.47
61119;BME280;51448;51.660;5.824;2023-04-28T04:05:55;101006.00;;;8.89;86.92
61119;BME280;51448;51.660;5.824;2023-04-28T04:08:23;100999.03;;;8.88;87.07
61119;BME280;51448;51.660;5.824;2023-04-28T04:10:51;100993.75;;;8.89;87.35
61119;BME280;51448;51.660;5.824;2023-04-28T04:13:21;100994.59;;;8.91;88.03
61119;BME280;51448;51.660;5.824;2023-04-28T04:15:50;100998.06;;;8.93;88.16
61119;BME280;51448;51.660;5.824;2023-04-28T04:18:20;100995.41;;;8.95;88.05
61119;BME280;51448;51.660;5.824;2023-04-28T04:21:17;100998.03;;;8.95;88.45
61119;BME280;51448;51.660;5.824;2023-04-28T04:23:46;100997.97;;;8.98;88.27
61119;BME280;51448;51.660;5.824;2023-04-28T04:26:14;100993.56;;;9.00;88.21
61119;BME280;51448;51.660;5.824;2023-04-28T04:28:41;100998.78;;;9.01;89.11
61119;BME280;51448;51.660;5.824;2023-04-28T04:31:10;100994.38;;;9.03;89.44
61119;BME280;51448;51.660;5.824;2023-04-28T04:33:38;100994.34;;;9.05;90.71
61119;BME280;51448;51.660;5.824;2023-04-28T04:36:06;100988.19;;;9.06;90.69
61119;BME280;51448;51.660;5.824;2023-04-28T04:38:34;100979.44;;;9.07;90.86
61119;BME280;51448;51.660;5.824;2023-04-28T04:41:12;100979.44;;;9.07;90.06
61119;BME280;51448;51.660;5.824;2023-04-28T04:43:39;100968.00;;;9.10;91.08
61119;BME280;51448;51.660;5.824;2023-04-28T04:46:07;100975.84;;;9.13;90.88
61119;BME280;51448;51.660;5.824;2023-04-28T04:48:35;100984.50;;;9.16;91.03
61119;BME280;51448;51.660;5.824;2023-04-28T04:51:03;100982.69;;;9.18;91.62
61119;BME280;51448;51.660;5.824;2023-04-28T04:53:31;100987.06;;;9.19;91.19
61119;BME280;51448;51.660;5.824;2023-04-28T04:55:59;100981.78;;;9.21;91.49
61119;BME280;51448;51.660;5.824;2023-04-28T04:58:29;100985.25;;;9.23;91.85
61119;BME280;51448;51.660;5.824;2023-04-28T05:01:12;100989.56;;;9.25;91.12
61119;BME280;51448;51.660;5.824;2023-04-28T05:03:40;100980.75;;;9.28;92.04
61119;BME280;51448;51.660;5.824;2023-04-28T05:06:08;100980.75;;;9.30;92.03
61119;BME280;51448;51.660;5.824;2023-04-28T05:08:45;100971.91;;;9.34;92.81
61119;BME280;51448;51.660;5.824;2023-04-28T05:11:13;100972.75;;;9.36;92.75
61119;BME280;51448;51.660;5.824;2023-04-28T05:13:40;100971.81;;;9.37;91.98
61119;BME280;51448;51.660;5.824;2023-04-28T05:16:08;100961.28;;;9.40;94.08
61119;BME280;51448;51.660;5.824;2023-04-28T05:18:36;100962.97;;;9.42;93.89
61119;BME280;51448;51.660;5.824;2023-04-28T05:21:03;100958.53;;;9.44;94.40
61119;BME280;51448;51.660;5.824;2023-04-28T05:23:32;100969.84;;;9.48;95.06
61119;BME280;51448;51.660;5.824;2023-04-28T05:26:00;100980.34;;;9.50;95.41
61119;BME280;51448;51.660;5.824;2023-04-28T05:28:29;100966.25;;;9.52;94.88
61119;BME280;51448;51.660;5.824;2023-04-28T05:31:00;100962.69;;;9.56;94.94
61119;BME280;51448;51.660;5.824;2023-04-28T05:33:30;100957.28;;;9.62;95.24
61119;BME280;51448;51.660;5.824;2023-04-28T05:35:58;100958.94;;;9.68;95.60
61119;BME280;51448;51.660;5.824;2023-04-28T05:38:26;100942.19;;;9.72;95.60
61119;BME280;51448;51.660;5.824;2023-04-28T05:40:55;100946.41;;;9.78;95.12
61119;BME280;51448;51.660;5.824;2023-04-28T05:43:23;100942.81;;;9.82;96.20
61119;BME280;51448;51.660;5.824;2023-04-28T05:45:51;100942.78;;;9.85;96.74
61119;BME280;51448;51.660;5.824;2023-04-28T05:48:19;100934.81;;;9.88;97.91
61119;BME280;51448;51.660;5.824;2023-04-28T05:50:46;100929.50;;;9.91;97.33
61119;BME280;51448;51.660;5.824;2023-04-28T05:53:14;100938.09;;;9.96;96.32
61119;BME280;51448;51.660;5.824;2023-04-28T05:55:41;100947.59;;;10.03;97.42
61119;BME280;51448;51.660;5.824;2023-04-28T05:58:10;100949.31;;;10.04;97.89
61119;BME280;51448;51.660;5.824;2023-04-28T06:00:37;100956.28;;;10.07;97.46
61119;BME280;51448;51.660;5.824;2023-04-28T06:03:05;100955.31;;;10.10;96.98
61119;BME280;51448;51.660;5.824;2023-04-28T06:05:35;100951.72;;;10.14;98.03
61119;BME280;51448;51.660;5.824;2023-04-28T06:08:07;100945.50;;;10.18;98.40
61119;BME280;51448;51.660;5.824;2023-04-28T06:10:36;100936.63;;;10.22;98.95
61119;BME280;51448;51.660;5.824;2023-04-28T06:13:04;100946.06;;;10.29;97.91
61119;BME280;51448;51.660;5.824;2023-04-28T06:15:32;100952.91;;;10.38;98.21
61119;BME280;51448;51.660;5.824;2023-04-28T06:18:00;100950.03;;;10.47;97.78
61119;BME280;51448;51.660;5.824;2023-04-28T06:20:31;100956.06;;;10.52;98.89
61119;BME280;51448;51.660;5.824;2023-04-28T06:22:58;100943.66;;;10.56;97.80
61119;BME280;51448;51.660;5.824;2023-04-28T06:25:26;100938.31;;;10.60;97.76
61119;BME280;51448;51.660;5.824;2023-04-28T06:27:53;100945.16;;;10.66;98.17
61119;BME280;51448;51.660;5.824;2023-04-28T06:30:21;100945.88;;;10.73;97.80
61119;BME280;51448;51.660;5.824;2023-04-28T06:32:49;100945.75;;;10.77;97.57
61119;BME280;51448;51.660;5.824;2023-04-28T06:35:18;100959.56;;;10.85;97.38
61119;BME280;51448;51.660;5.824;2023-04-28T06:37:45;100954.97;;;10.92;97.77
61119;BME280;51448;51.660;5.824;2023-04-28T06:40:14;100948.75;;;10.95;97.96
61119;BME280;51448;51.660;5.824;2023-04-28T06:42:48;100947.84;;;10.97;97.78
61119;BME280;51448;51.660;5.824;2023-04-28T06:45:23;100940.69;;;11.01;98.23
61119;BME280;51448;51.660;5.824;2023-04-28T06:47:52;100940.53;;;11.07;98.01
61119;BME280;51448;51.660;5.824;2023-04-28T06:50:23;100942.16;;;11.11;97.99
61119;BME280;51448;51.660;5.824;2023-04-28T06:52:50;100941.16;;;11.15;98.13
61119;BME280;51448;51.660;5.824;2023-04-28T06:55:18;100938.47;;;11.18;98.66
61119;BME280;51448;51.660;5.824;2023-04-28T06:57:46;100936.66;;;11.20;99.04
61119;BME280;51448;51.660;5.824;2023-04-28T07:00:14;100932.97;;;11.26;98.72
61119;BME280;51448;51.660;5.824;2023-04-28T07:02:42;100934.53;;;11.32;98.88
61119;BME280;51448;51.660;5.824;2023-04-28T07:05:10;100934.47;;;11.35;98.72
61119;BME280;51448;51.660;5.824;2023-04-28T07:07:38;100929.91;;;11.40;98.07
61119;BME280;51448;51.660;5.824;2023-04-28T07:10:06;100929.66;;;11.49;98.28
61119;BME280;51448;51.660;5.824;2023-04-28T07:12:37;100932.09;;;11.55;98.46
61119;BME280;51448;51.660;5.824;2023-04-28T07:15:05;100933.72;;;11.59;99.16
61119;BME280;51448;51.660;5.824;2023-04-28T07:17:38;100930.94;;;11.64;99.15
61119;BME280;51448;51.660;5.824;2023-04-28T07:20:06;100930.78;;;11.68;100.00
61119;BME280;51448;51.660;5.824;2023-04-28T07:22:34;100919.06;;;11.79;99.36
61119;BME280;51448;51.660;5.824;2023-04-28T07:25:02;100925.75;;;11.91;99.37
61119;BME280;51448;51.660;5.824;2023-04-28T07:27:30;100934.22;;;12.00;99.21
61119;BME280;51448;51.660;5.824;2023-04-28T07:29:58;100925.16;;;12.09;99.34
61119;BME280;51448;51.660;5.824;2023-04-28T07:32:33;100926.56;;;12.19;98.79
61119;BME280;51448;51.660;5.824;2023-04-28T07:35:01;100931.44;;;12.32;98.83
61119;BME280;51448;51.660;5.824;2023-04-28T07:37:28;100937.28;;;12.41;98.61
61119;BME280;51448;51.660;5.824;2023-04-28T07:39:58;100923.84;;;12.49;98.99
61119;BME280;51448;51.660;5.824;2023-04-28T07:42:29;100921.84;;;12.56;98.76
61119;BME280;51448;51.660;5.824;2023-04-28T07:44:56;100919.84;;;12.62;98.78
61119;BME280;51448;51.660;5.824;2023-04-28T07:47:25;100917.03;;;12.67;98.65
61119;BME280;51448;51.660;5.824;2023-04-28T07:49:53;100921.19;;;12.74;98.91
61119;BME280;51448;51.660;5.824;2023-04-28T07:52:21;100922.53;;;12.86;98.47
61119;BME280;51448;51.660;5.824;2023-04-28T07:54:49;100923.03;;;12.96;98.49
61119;BME280;51448;51.660;5.824;2023-04-28T07:57:16;100915.69;;;13.04;98.48
61119;BME280;51448;51.660;5.824;2023-04-28T07:59:44;100918.81;;;13.15;98.29
61119;BME280;51448;51.660;5.824;2023-04-28T08:02:12;100915.13;;;13.19;98.24
61119;BME280;51448;51.660;5.824;2023-04-28T08:04:41;100918.44;;;13.24;98.10
61119;BME280;51448;51.660;5.824;2023-04-28T08:07:09;100916.56;;;13.28;97.86
61119;BME280;51448;51.660;5.824;2023-04-28T08:09:37;100911.25;;;13.30;97.77
61119;BME280;51448;51.660;5.824;2023-04-28T08:12:08;100919.13;;;13.31;97.96
61119;BME280;51448;51.660;5.824;2023-04-28T08:14:35;100906.78;;;13.32;98.99
61119;BME280;51448;51.660;5.824;2023-04-28T08:17:03;100909.38;;;13.33;99.87
61119;BME280;51448;51.660;5.824;2023-04-28T08:19:31;100918.34;;;13.29;100.00
61119;BME280;51448;51.660;5.824;2023-04-28T08:21:59;100922.03;;;13.23;100.00
61119;BME280;51448;51.660;5.824;2023-04-28T08:24:32;100930.84;;;13.22;100.00
61119;BME280;51448;51.660;5.824;2023-04-28T08:27:03;100928.28;;;13.21;100.00
61119;BME280;51448;51.660;5.824;2023-04-28T08:29:31;100937.88;;;13.23;100.00
61119;BME280;51448;51.660;5.824;2023-04-28T08:31:59;100933.44;;;13.24;100.00
61119;BME280;51448;51.660;5.824;2023-04-28T08:34:31;100923.81;;;13.23;100.00
61119;BME280;51448;51.660;5.824;2023-04-28T08:37:00;100923.88;;;13.21;100.00
61119;BME280;51448;51.660;5.824;2023-04-28T08:39:28;100929.91;;;13.25;100.00
61119;BME280;51448;51.660;5.824;2023-04-28T08:41:56;100921.69;;;13.33;100.00
61119;BME280;51448;51.660;5.824;2023-04-28T08:44:24;100916.19;;;13.39;100.00
61119;BME280;51448;51.660;5.824;2023-04-28T08:46:55;100921.16;;;13.46;100.00
61119;BME280;51448;51.660;5.824;2023-04-28T08:49:33;100923.53;;;13.54;100.00
61119;BME280;51448;51.660;5.824;2023-04-28T08:52:11;100935.66;;;13.60;100.00
61119;BME280;51448;51.660;5.824;2023-04-28T08:54:43;100925.06;;;13.60;100.00
61119;BME280;51448;51.660;5.824;2023-04-28T08:57:16;100928.53;;;13.62;100.00
61119;BME280;51448;51.660;5.824;2023-04-28T08:59:45;100921.44;;;13.62;100.00
61119;BME280;51448;51.660;5.824;2023-04-28T09:02:14;100924.03;;;13.64;100.00
61119;BME280;51448;51.660;5.824;2023-04-28T09:04:41;100918.56;;;13.68;100.00
61119;BME280;51448;51.660;5.824;2023-04-28T09:07:10;100931.47;;;13.76;100.00
61119;BME280;51448;51.660;5.824;2023-04-28T09:09:39;100923.22;;;13.84;100.00
61119;BME280;51448;51.660;5.824;2023-04-28T09:12:07;100923.75;;;13.92;100.00
61119;BME280;51448;51.660;5.824;2023-04-28T09:14:36;100919.97;;;13.99;100.00
61119;BME280;51448;51.660;5.824;2023-04-28T09:17:12;100917.94;;;14.06;100.00
61119;BME280;51448;51.660;5.824;2023-04-28T09:19:40;100918.66;;;14.09;100.00
61119;BME280;51448;51.660;5.824;2023-04-28T09:22:09;100911.22;;;14.19;100.00
61119;BME280;51448;51.660;5.824;2023-04-28T09:24:52;100913.94;;;14.38;100.00
61119;BME280;51448;51.660;5.824;2023-04-28T09:27:26;100910.75;;;14.51;100.00
61119;BME280;51448;51.660;5.824;2023-04-28T09:29:54;100908.91;;;14.53;100.00
61119;BME280;51448;51.660;5.824;2023-04-28T09:32:22;100905.41;;;14.52;100.00
61119;BME280;51448;51.660;5.824;2023-04-28T09:34:52;100917.66;;;14.55;100.00
61119;BME280;51448;51.660;5.824;2023-04-28T09:37:25;100917.63;;;14.56;100.00
61119;BME280;51448;51.660;5.824;2023-04-28T09:39:54;100914.16;;;14.54;100.00
61119;BME280;51448;51.660;5.824;2023-04-28T09:45:12;100910.03;;;14.47;100.00
61119;BME280;51448;51.660;5.824;2023-04-28T09:47:43;100920.66;;;14.45;100.00
61119;BME280;51448;51.660;5.824;2023-04-28T09:50:14;100910.09;;;14.45;100.00
61119;BME280;51448;51.660;5.824;2023-04-28T09:52:47;100904.69;;;14.48;100.00
61119;BME280;51448;51.660;5.824;2023-04-28T09:55:24;100905.31;;;14.54;100.00
61119;BME280;51448;51.660;5.824;2023-04-28T09:57:53;100912.31;;;14.56;100.00
61119;BME280;51448;51.660;5.824;2023-04-28T10:00:22;100910.56;;;14.55;100.00
61119;BME280;51448;51.660;5.824;2023-04-28T10:02:51;100915.84;;;14.55;100.00
61119;BME280;51448;51.660;5.824;2023-04-28T10:05:20;100907.91;;;14.55;100.00
61119;BME280;51448;51.660;5.824;2023-04-28T10:07:50;100903.44;;;14.57;100.00
61119;BME280;51448;51.660;5.824;2023-04-28T10:10:20;100909.59;;;14.58;100.00
61119;BME280;51448;51.660;5.824;2023-04-28T10:12:50;100916.56;;;14.60;100.00
61119;BME280;51448;51.660;5.824;2023-04-28T10:15:17;100914.81;;;14.59;100.00
61119;BME280;51448;51.660;5.824;2023-04-28T10:17:47;100913.19;;;14.57;100.00
61119;BME280;51448;51.660;5.824;2023-04-28T10:20:17;100918.47;;;14.57;100.00
61119;BME280;51448;51.660;5.824;2023-04-28T10:26:15;100909.59;;;14.58;100.00
61119;BME280;51448;51.660;5.824;2023-04-28T10:28:49;100914.75;;;14.61;100.00
61119;BME280;51448;51.660;5.824;2023-04-28T10:31:20;100914.63;;;14.64;100.00
61119;BME280;51448;51.660;5.824;2023-04-28T10:33:49;100915.34;;;14.67;100.00
61119;BME280;51448;51.660;5.824;2023-04-28T10:36:45;100905.34;;;14.74;100.00
61119;BME280;51448;51.660;5.824;2023-04-28T10:39:19;100911.53;;;14.75;100.00
61119;BME280;51448;51.660;5.824;2023-04-28T10:41:47;100908.66;;;14.79;100.00
61119;BME280;51448;51.660;5.824;2023-04-28T10:47:04;100908.50;;;14.82;100.00
61119;BME280;51448;51.660;5.824;2023-04-28T10:55:29;100908.50;;;14.82;100.00
61119;BME280;51448;51.660;5.824;2023-04-28T11:00:44;100904.94;;;14.83;100.00
61119;BME280;51448;51.660;5.824;2023-04-28T11:03:38;100904.94;;;14.83;100.00
61119;BME280;51448;51.660;5.824;2023-04-28T11:06:33;100908.50;;;14.82;100.00
61119;BME280;51448;51.660;5.824;2023-04-28T11:14:31;100903.31;;;14.81;100.00
61119;BME280;51448;51.660;5.824;2023-04-28T11:17:02;100908.44;;;14.84;100.00
61119;BME280;51448;51.660;5.824;2023-04-28T11:19:35;100905.69;;;14.87;100.00
61119;BME280;51448;51.660;5.824;2023-04-28T11:22:05;100903.81;;;14.89;100.00
61119;BME280;51448;51.660;5.824;2023-04-28T11:24:40;100904.66;;;14.89;100.00
61119;BME280;51448;51.660;5.824;2023-04-28T11:27:08;100908.13;;;14.92;100.00
61119;BME280;51448;51.660;5.824;2023-04-28T11:29:37;100902.59;;;14.96;100.00
61119;BME280;51448;51.660;5.824;2023-04-28T11:32:07;100908.63;;;15.00;100.00
61119;BME280;51448;51.660;5.824;2023-04-28T11:34:36;100909.13;;;15.08;100.00
61119;BME280;51448;51.660;5.824;2023-04-28T11:37:05;100889.09;;;15.21;100.00
61119;BME280;51448;51.660;5.824;2023-04-28T11:39:34;100888.22;;;15.40;100.00
61119;BME280;51448;51.660;5.824;2023-04-28T11:42:09;100882.94;;;15.59;100.00
61119;BME280;51448;51.660;5.824;2023-04-28T11:44:37;100888.63;;;15.68;100.00
61119;BME280;51448;51.660;5.824;2023-04-28T11:47:06;100887.28;;;15.79;100.00
61119;BME280;51448;51.660;5.824;2023-04-28T11:49:44;100894.06;;;15.84;100.00
61119;BME280;51448;51.660;5.824;2023-04-28T11:52:12;100888.78;;;15.84;100.00
61119;BME280;51448;51.660;5.824;2023-04-28T11:54:40;100890.56;;;15.84;100.00
61119;BME280;51448;51.660;5.824;2023-04-28T11:57:17;100891.41;;;15.84;100.00
61119;BME280;51448;51.660;5.824;2023-04-28T11:59:46;100894.13;;;15.83;100.00
61119;BME280;51448;51.660;5.824;2023-04-28T12:02:23;100887.91;;;15.84;100.00
61119;BME280;51448;51.660;5.824;2023-04-28T12:04:54;100893.22;;;15.84;100.00
61119;BME280;51448;51.660;5.824;2023-04-28T12:07:22;100888.69;;;15.86;100.00
61119;BME280;51448;51.660;5.824;2023-04-28T12:10:12;100890.19;;;15.92;100.00
61119;BME280;51448;51.660;5.824;2023-04-28T12:12:45;100889.19;;;15.94;100.00
61119;BME280;51448;51.660;5.824;2023-04-28T12:15:16;100890.03;;;15.95;100.00
61119;BME280;51448;51.660;5.824;2023-04-28T12:17:46;100891.59;;;15.99;100.00
61119;BME280;51448;51.660;5.824;2023-04-28T12:20:35;100896.84;;;16.00;100.00
61119;BME280;51448;51.660;5.824;2023-04-28T12:23:05;100896.19;;;15.95;100.00
61119;BME280;51448;51.660;5.824;2023-04-28T12:25:44;100897.44;;;15.88;100.00
61119;BME280;51448;51.660;5.824;2023-04-28T12:28:14;100899.59;;;15.80;100.00
61119;BME280;51448;51.660;5.824;2023-04-28T12:30:41;100895.53;;;15.73;100.00
61119;BME280;51448;51.660;5.824;2023-04-28T12:33:23;100901.88;;;15.68;100.00
61119;BME280;51448;51.660;5.824;2023-04-28T12:35:52;100911.13;;;15.60;100.00
61119;BME280;51448;51.660;5.824;2023-04-28T12:38:23;100912.56;;;15.48;100.00
61119;BME280;51448;51.660;5.824;2023-04-28T12:40:51;100912.97;;;15.40;100.00
61119;BME280;51448;51.660;5.824;2023-04-28T12:43:20;100905.19;;;15.36;100.00
61119;BME280;51448;51.660;5.824;2023-04-28T12:45:50;100919.63;;;15.30;100.00
61119;BME280;51448;51.660;5.824;2023-04-28T12:48:22;100917.09;;;15.27;100.00
61119;BME280;51448;51.660;5.824;2023-04-28T12:50:51;100917.31;;;15.22;100.00
61119;BME280;51448;51.660;5.824;2023-04-28T12:53:19;100915.66;;;15.20;100.00
61119;BME280;51448;51.660;5.824;2023-04-28T12:55:49;100917.59;;;15.16;100.00
61119;BME280;51448;51.660;5.824;2023-04-28T12:58:16;100916.88;;;15.13;100.00
61119;BME280;51448;51.660;5.824;2023-04-28T13:00:44;100913.50;;;15.09;100.00
61119;BME280;51448;51.660;5.824;2023-04-28T13:03:12;100917.16;;;15.06;100.00
61119;BME280;51448;51.660;5.824;2023-04-28T13:05:42;100916.41;;;15.03;100.00
61119;BME280;51448;51.660;5.824;2023-04-28T13:08:10;100914.84;;;14.99;100.00
61119;BME280;51448;51.660;5.824;2023-04-28T13:10:39;100921.13;;;14.96;100.00
61119;BME280;51448;51.660;5.824;2023-04-28T13:13:07;100924.78;;;14.94;100.00
61119;BME280;51448;51.660;5.824;2023-04-28T13:15:34;100919.72;;;14.89;100.00
61119;BME280;51448;51.660;5.824;2023-04-28T13:18:05;100929.69;;;14.82;100.00
61119;BME280;51448;51.660;5.824;2023-04-28T13:20:32;100933.41;;;14.78;100.00
61119;BME280;51448;51.660;5.824;2023-04-28T13:23:00;100940.81;;;14.70;100.00
61119;BME280;51448;51.660;5.824;2023-04-28T13:25:28;100939.66;;;14.57;100.00